KCMH/CMH METAR and TAF weather

Enter ICAO airport designator
Station Type Date Time Source
KCMH METAR 2018/10/16 19:51 UTC NOAA

KCMH 161951Z 22007KT 10SM OVC250 13/00 A3014 RMK AO2 SLP207 T01330000


Station Type Date Time Source
KCMH Decoded METAR 2018/10/16 19:51 UTC NOAA

PORT COLUMBUS INTERNATIONAL AIRPORT, OH, United States (KCMH) 40-00N 82-53W 247M
Oct 16, 2018 - 03:51 PM EDT / 2018.10.16 1951 UTC
Wind: from the SW (220 degrees) at 8 MPH (7 KT):0
Visibility: 10 mile(s):0
Sky conditions: overcast
Temperature: 55.9 F (13.3 C)
Dew Point: 32.0 F (0.0 C)
Relative Humidity: 40%
Pressure (altimeter): 30.14 in. Hg (1020 hPa)
ob: KCMH 161951Z 22007KT 10SM OVC250 13/00 A3014 RMK AO2 SLP207 T01330000
cycle: 20

Station Type Date Time Source
KCMH TAF 2018/10/16 18:34 UTC NOAA

TAF KCMH 161732Z 1618/1718 26006KT P6SM BKN250
FM170000 25007KT P6SM SCT250
FM170600 25009KT P6SM FEW250 WS020/28035KT
FM170900 25009KT P6SM FEW250
FM171400 29014G24KT P6SM SCT250


Example: see airport list